Terminal Aerodrome Forecast
Issued by NWS

Home | Current Version | Previous Version | Text Only | Print | Product List | Glossary On
Versions: 1 2 3 4 5 6 7 8 9 10 11 12 13 14 15 16 17 18 19 20 21 22 23 24 25 26 27 28 29 30 31 32 33 34 35 36
000
FTUS43 KDLH 012000 AAA
TAFBRD
TAF AMD
KBRD 012024Z 0120/0218 16009KT P6SM VCSH BKN008 OVC015
      TEMPO 0121/0201 P6SM SCT008 BKN015
     FM020200 16005KT P6SM SCT025 BKN050
     FM020500 20004KT 5SM BR SCT050
     FM020800 VRB03KT 2SM BR SCT003 SCT150
     FM021000 VRB02KT 1SM BR BKN002=

USA.gov is the U.S. government's official web portal to all federal, state and local government web resources and services.